METAR AND TAF INFORMATION

METAR FOR GCXO
ADDS - METARS form results

(1000 UTC 04 February 2023)
Data provider http://aviationweather.gov/metar/data/
 
METAR text: GCXO 040930Z 28005KT 230V340 9999 FEW005 SCT015CB BKN060 10/08 Q1027 RETSRA NOSIG
Conditions at: GCXO (TENERIFE/LOS ROD, ES) observed 0930 UTC 04 February 2023
Temperature: 10.0°C (50°F)
Dewpoint: 8.0°C (46°F) [RH = 87%]
Pressure (altimeter): 30.32 inches Hg (1027.0 mb)
Winds: from the W (280 degrees) at 6 MPH (5 knots; 2.6 m/s)
Visibility: 6 or more miles (10+ km)
Ceiling: 6000 feet AGL
Clouds: few clouds at 500 feet AGL
scattered clouds at 1500 feet AGL
broken clouds at 6000 feet AGL
Weather: no significant weather observed at this time

METAR text: GCXO 040915Z VRB06KT 9999 FEW005 SCT015CB BKN060 10/08 Q1026 RETSRA NOSIG
Conditions at: GCXO (TENERIFE/LOS ROD, ES) observed 0915 UTC 04 February 2023
Temperature: 10.0°C (50°F)
Dewpoint: 8.0°C (46°F) [RH = 87%]
Pressure (altimeter): 30.30 inches Hg (1026.0 mb)
Winds: variable direction winds at 7 MPH (6 knots; 3.1 m/s)
Visibility: 6 or more miles (10+ km)
Ceiling: 6000 feet AGL
Clouds: few clouds at 500 feet AGL
scattered clouds at 1500 feet AGL
broken clouds at 6000 feet AGL
Weather: no significant weather observed at this time

Forecast for: GCXO (TENERIFE/LOS ROD, ES)
Text: TAF GCXO 040800Z 0409/0509 03007KT 9999 SCT020 TX15/0414Z TN10/0506Z
Forecast period: 0900 UTC 04 February 2023 to 0900 UTC 05 February 2023
Forecast type: FROM: standard forecast or significant change
Winds: from the NNE (30 degrees) at 8 MPH (7 knots; 3.6 m/s)
Visibility: 6 or more miles (10+ km)
Ceiling: at least 12,000 feet AGL
Clouds: scattered clouds at 2000 feet AGL
Weather: no significant weather forecast for this period
Text: PROB30
Forecast period: 1200 to 1800 UTC 04 February 2023
Forecast type: TEMPORARY: The following changes expected for less than half the time period
Visibility: missing
Ceiling: 1300 feet AGL
Clouds: broken clouds at 1300 feet AGL
Weather: RA  (moderate rain)
Text: TEMPO 0412/0418 RA BKN013
Forecast period: 2100 UTC 04 February 2023 to 0300 UTC 05 February 2023
Forecast type: TEMPORARY: The following changes expected for less than half the time period
Visibility: missing
Ceiling: 1300 feet AGL
Clouds: broken clouds at 1300 feet AGL
Weather: RA  (moderate rain)

 

AIRPORT MAP

 

RUNWAY INFORMATION

Runway 12 Runway length 11155 ft Runway width 148 ft
Runway elevation 2060 ft Runway displaced threshold 0 ft Runway heading 111
Runway 30 Runway length 11155 ft Runway width 148 ft
Runway elevation 2002 ft Runway displaced threshold 0 ft Runway heading 291

 

AIRPORT FREQUENCIES

Type APP Name APP Frequency 119.7 MHZ
Type ATIS Name ATIS Frequency 118.575 MHZ
Type GND Name GND Frequency 121.7 MHZ
Type TWR Name TWR Frequency 118.7 MHZ

 

AIRPORT NEAR NAVIGATION AIDS

Type VOR-DME Name Tenerife Norte Frequency 117700 KHZ
Type NDB Name Tenerife Norte Frequency 410 KHZ